<< Go Back

River Slash Dash
Date: Jul. 11, 2015
Results by Everal Race Management
Contact for Race Timing

 
River Splash Dash

5k

Age Group Results

July 11, 2015

Results Provided by Everal Race Management

Male Overall Winners
Total
Place Name City Bib No Age Overall Time Pace
1 Kyle Smith Linden MI 99 27 1 15:18 4:56/M


Female Overall Winners
Total
Place Name City Bib No Age Overall Time Pace
1 Andrea Moss Berkley MI 73 36 7 20:18 6:33/M


Male Masters Winners
Total
Place Name City Bib No Age Overall Time Pace
1 Steve Leonardo Grosse Pointe MI 58 45 6 19:53 6:25/M


Female Masters Winners
Total
Place Name City Bib No Age Overall Time Pace
1 Kimberly Koppi Oxford MI 54 47 22 23:59 7:44/M


No age provided
Total
Place Name City Bib No Age Overall Time Pace
1 Thomastine Ureh Ecorse MI 112 0 123 1:01:34 19:52/M


Male 9 & under
Total
Place Name City Bib No Age Overall Time Pace
1 Jake Sorvari Wixom MI 134 7 85 34:59 11:17/M
2 Ben Cambell Oak Park MI 18 7 100 39:17 12:40/M


Male 10 to 14
Total
Place Name City Bib No Age Overall Time Pace
1 Arya Sunil Rochester Hills MI 105 12 27 24:54 8:02/M
2 Jacob Williams West Bloomfield MI 131 14 41 27:06 8:45/M


Female 10 to 14
Total
Place Name City Bib No Age Overall Time Pace
1 Meg Pangborn Grosse Pointe MI 83 13 13 22:06 7:08/M
2 Andrea Porada-Weir Saint Clair Shores 86 13 18 22:46 7:21/M


Male 15 to 19
Total
Place Name City Bib No Age Overall Time Pace
1 Connor Welborn Troy MI 121 17 5 19:42 6:21/M
2 Joseph Williams West Bloomfield MI 130 15 21 23:50 7:41/M


Female 15 to 19
Total
Place Name City Bib No Age Overall Time Pace
1 Kate Irwin Bloomfield Hills M 133 16 30 25:09 8:07/M
2 Kirsten Chamberland Abbostfoed BC 21 19 52 29:02 9:22/M


Male 20 to 24
Total
Place Name City Bib No Age Overall Time Pace
1 Brett Smith Linden MI 98 24 2 15:35 5:02/M
2 Christopher Pokladek Grosse Pointe Woods 85 24 3 17:58 5:48/M
3 Brendan Barkume Sterling Heights M 5 22 17 22:44 7:20/M


Female 20 to 24
Total
Place Name City Bib No Age Overall Time Pace
1 Nastassja Cuellar-Wilson Ypsilanti MI 26 24 57 29:12 9:25/M
2 Sydney Anson Carleton MI 2 20 59 29:16 9:26/M
3 Ansley Rugal Macomb MI 91 23 79 33:39 10:51/M


Male 25 to 29
Total
Place Name City Bib No Age Overall Time Pace
1 Josh Curie Detroit MI 28 29 4 19:04 6:09/M
2 Samuel Thomas Ypsilanti MI 109 26 58 29:12 9:25/M


Female 25 to 29
Total
Place Name City Bib No Age Overall Time Pace
1 Ellen McNamara Ferndale MI 68 28 20 23:24 7:33/M
2 Jennifer Fiebelkorn Auburn Hills MI 141 29 31 25:28 8:13/M
3 Lisa Stein Trenton MI 103 28 56 29:11 9:25/M
4 Amanda Kropp Clinton Township M 55 29 76 33:12 10:43/M
5 Anne Kopena Detroit MI 143 27 103 40:36 13:06/M


Male 30 to 34
Total
Place Name City Bib No Age Overall Time Pace
1 Chad Zamler Royal Oak MI 119 30 19 22:57 7:24/M
2 Dave Majeski Grosse Pointe MI 66 32 26 24:22 7:52/M
3 Alexandg Rodrigus Fairbanks AK 140 34 32 25:37 8:16/M
4 Dwayne Augustus New Baltimore MI 139 31 36 26:37 8:35/M
5 Daniel Maiorano Troy MI 65 32 49 28:46 9:17/M
6 Eric Sorvari Wixom MI 101 34 84 34:56 11:16/M
7 Mario Chaney Oak Park MI 22 33 110 45:37 14:43/M
8 Christopher Burns New Baltimore MI 122 34 119 54:47 17:40/M


Female 30 to 34
Total
Place Name City Bib No Age Overall Time Pace
1 Alesia Sibrel Detroit MI 95 31 14 22:10 7:09/M
2 Lisa Zagresky Wyandotte MI 118 34 28 24:59 8:04/M
3 Janine Guastella Plymouth MI 39 32 33 25:56 8:22/M
4 Stephanie Luft Detroit MI 63 30 37 26:38 8:35/M
5 Lisa Bastuba Clinton Township M 7 31 55 29:09 9:24/M
6 Michelle Simon New Boston MI 97 30 75 33:12 10:43/M
7 Janice Quigg Clawson MI 88 34 80 34:00 10:58/M
8 Blake Padilla Royal Oak MI 142 34 87 35:14 11:22/M
9 Heidi Palaj Berkley MI 81 34 99 39:15 12:40/M
10 Lisa Rajt Oak Park MI 89 34 101 39:22 12:42/M
11 Carrie Herrgott Berkley MI 44 33 105 41:26 13:22/M
12 Christina Van Hoey Southfield MI 113 31 107 43:33 14:03/M
13 Jessica Jackson Plymouth MI 46 34 111 46:13 14:55/M
14 Audra Minna White Lake MI 70 31 120 55:18 17:50/M
15 Tamieka Caldwell Royal Oak MI 17 33 122 1:01:30 19:50/M


Male 35 to 39
Total
Place Name City Bib No Age Overall Time Pace
1 John Heine Harrison Township 42 37 24 24:07 7:47/M
2 Deepak Prabhakar Detroit MI 87 35 34 26:18 8:29/M
3 Steven Dewit Trenton MI 30 36 35 26:24 8:31/M
4 Joseph Nelson Flat Rock MI 77 38 43 27:42 8:56/M
5 Agim Palaj Berkley MI 80 35 60 30:05 9:42/M
6 George Cipolla Detroit MI 138 36 63 30:32 9:51/M
7 Leandro Cardenas Franklin MI 19 39 73 32:55 10:37/M
8 Jason Wrobel Sterling Heights M 117 39 102 39:47 12:50/M
9 Nick Branum Southfield MI 14 35 106 43:10 13:55/M


Female 35 to 39
Total
Place Name City Bib No Age Overall Time Pace
1 Rachela Lack Saint Clair Shores 56 39 10 21:37 6:58/M
2 Molly Madigan Southgate MI 64 35 29 25:04 8:05/M
3 Kay Tarpley Wyandotte MI 107 36 48 28:40 9:15/M
4 Nadine Compere Novi MI 137 36 65 31:36 10:12/M
5 Toni Serio Utica MI 93 37 88 35:38 11:30/M
6 Nicole Nelson Flat Rock MI 78 38 90 36:09 11:40/M
7 Jill Kopper Utica MI 52 35 95 37:35 12:07/M
8 Jeneita Bell Lilburn GA 11 35 98 38:31 12:25/M
9 Cathy Sorvari Wixom MI 100 35 104 40:51 13:11/M


Male 40 to 44
Total
Place Name City Bib No Age Overall Time Pace
1 Patrick Easton Brownstown MI 33 43 11 21:44 7:01/M
2 Chuck Eisel Brownstown MI 126 42 40 26:44 8:37/M
3 Jacques Kabongo Southfield MI 49 44 64 30:40 9:54/M
4 Carlito Alo Bloomfield Hills M 1 44 72 32:30 10:29/M
5 Ranakrishnappa Sunil Rochester Hills MI 106 42 93 37:01 11:56/M
6 Alan Williams West Bloomfield MI 129 43 94 37:12 12:00/M
7 Pierrel Foxworth Florence KY 36 41 109 45:32 14:41/M


Female 40 to 44
Total
Place Name City Bib No Age Overall Time Pace
1 Naomi Welborn Troy MI 120 42 38 26:41 8:36/M
2 Michelle Easton Brownstown MI 32 41 62 30:17 9:46/M
3 Pallavi Munikrishna Rochester Hills MI 75 40 81 34:18 11:04/M
4 Tara Trail Wayne MI 111 42 97 37:57 12:15/M
5 Jannet Foxworth Florence KY 35 44 108 45:32 14:41/M
6 Annie Bionson Bloomfield Hills M 12 40 115 48:35 15:40/M
7 Latisha Tippett Southfield MI 110 44 118 54:09 17:28/M


Male 45 to 49
Total
Place Name City Bib No Age Overall Time Pace
1 Lyndon Lie Rochester MI 59 48 15 22:10 7:09/M
2 Christian Koppi Oxford MI 53 47 16 22:36 7:17/M
3 Anthony Blasil Wyandotte MI 128 47 23 24:00 7:45/M
4 Marvin Franklin Wayne MI 37 46 44 27:45 8:57/M
5 Mike Stoller Grosse Pointe MI 104 45 45 27:46 8:57/M
6 Dennis Tempia Rochester MI 108 46 50 28:46 9:17/M
7 Craig Johnonda Redford MI 48 45 114 47:58 15:28/M


Female 45 to 49
Total
Place Name City Bib No Age Overall Time Pace
1 Heidi Pangborn Grosse Pointe MI 82 48 25 24:20 7:51/M
2 Jennifer Leonard Canton MI 57 46 39 26:41 8:36/M
3 Renae Micou Detroit MI 69 46 67 31:57 10:18/M
4 Jane Wallace Riverview MI 124 48 68 32:00 10:19/M
5 Rhonda Bifano South Lyon MI 136 48 69 32:09 10:22/M
6 Ladawn Barnette Westland MI 6 45 71 32:26 10:28/M
7 Kara White New Baltimore MI 115 49 78 33:28 10:48/M
8 Tena Lie Rochester MI 60 46 83 34:28 11:07/M
9 Tiffany Easley Flat Rock MI 127 45 86 35:07 11:20/M
10 Sandy Chekal Farmington MI 24 47 116 49:20 15:55/M
11 Lisa D Wright Atlanta GA 116 45 121 56:52 18:21/M


Male 50 to 54
Total
Place Name City Bib No Age Overall Time Pace
1 Steve Broda Northville MI 15 53 8 21:07 6:49/M
2 Kevin Sherwood Royal Oak MI 94 53 9 21:26 6:55/M
3 Michael Chekal Farmington MI 23 51 42 27:32 8:53/M
4 Stu Irwin Bloomfield Hills M 132 52 46 27:52 8:59/M
5 James Wallace Trenton MI 125 50 77 33:27 10:47/M


Female 50 to 54
Total
Place Name City Bib No Age Overall Time Pace
1 Elizabeth Cornillie Grosse Pointe MI 25 53 47 28:06 9:04/M
2 Sherryl Hercula Macomb MI 43 51 51 28:58 9:21/M
3 Laura Saylor Hazel Park MI 92 53 53 29:05 9:23/M
4 Karen Morgan Davison MI 72 54 96 37:35 12:07/M
5 Kimberly Beard Detroit MI 9 50 113 47:55 15:27/M


Male 55 to 59
Total
Place Name City Bib No Age Overall Time Pace
1 Mark Payne Hastings MI 84 56 12 22:03 7:07/M
2 Don Wallace Riverview MI 123 55 66 31:41 10:13/M


Female 55 to 59
Total
Place Name City Bib No Age Overall Time Pace
1 Lynn Guzman Plymouth MI 135 56 54 29:06 9:23/M
2 Rhonda Jackson Southfield MI 47 56 82 34:22 11:05/M
3 Lupe Harpster Flat Rock MI 41 55 91 36:11 11:40/M


Male 60 to 64
Total
Place Name City Bib No Age Overall Time Pace
1 Bruce Featherstone Franklin MI 34 62 61 30:12 9:45/M
2 Eddie Caldwell Detroit MI 16 62 124 1:01:34 19:52/M


Female 60 to 64
Total
Place Name City Bib No Age Overall Time Pace
1 Carolyn Kator Sterling Heights M 50 62 70 32:15 10:24/M
2 Lillian Key Detroit MI 51 60 74 33:11 10:42/M
3 Darla Van Hoey Southfield MI 114 64 117 51:51 16:44/M


Male 65 to 69
Total
Place Name City Bib No Age Overall Time Pace
1 Frank Bach Detroit MI 3 66 89 35:58 11:36/M


Female 65 to 69
Total
Place Name City Bib No Age Overall Time Pace
1 Gail Starzynski Eastpointe MI 102 69 92 36:12 11:41/M
2 Peggy Bach Detroit MI 4 65 112 46:14 14:55/M